createdAt,value
2022-07-31T00:00:15.328Z,24.88
2022-07-31T00:02:42.189Z,23.85
2022-07-31T00:05:09.149Z,22.25
2022-07-31T00:07:35.811Z,23.27
2022-07-31T00:10:02.869Z,21.77
2022-07-31T00:12:29.596Z,20.83
2022-07-31T00:14:56.296Z,19.70
2022-07-31T00:17:23.056Z,20.45
2022-07-31T00:19:49.700Z,20.60
2022-07-31T00:22:16.310Z,20.08
2022-07-31T00:24:42.989Z,19.95
2022-07-31T00:27:10.887Z,20.75
2022-07-31T00:29:38.639Z,20.27
2022-07-31T00:32:06.067Z,20.95
2022-07-31T00:34:32.900Z,21.63
2022-07-31T00:36:59.677Z,21.23
2022-07-31T00:39:26.679Z,21.70
2022-07-31T00:41:55.045Z,20.00
2022-07-31T00:44:21.756Z,21.23
2022-07-31T00:46:48.621Z,20.60
2022-07-31T00:49:16.001Z,21.05
2022-07-31T00:51:42.738Z,22.45
2022-07-31T00:54:10.469Z,21.80
2022-07-31T00:56:45.243Z,22.30
2022-07-31T00:59:12.661Z,21.58
2022-07-31T01:01:39.417Z,22.25
2022-07-31T01:04:06.092Z,20.80
2022-07-31T01:06:33.156Z,21.92
2022-07-31T01:09:01.551Z,20.95
2022-07-31T01:11:42.041Z,21.75
2022-07-31T01:14:10.118Z,21.50
2022-07-31T01:16:51.645Z,21.38
2022-07-31T01:19:39.767Z,21.90
2022-07-31T01:22:33.401Z,19.90
2022-07-31T01:25:10.418Z,20.02
2022-07-31T01:27:49.465Z,19.52
2022-07-31T01:30:17.630Z,19.23
2022-07-31T01:32:51.824Z,19.23
2022-07-31T01:35:25.645Z,18.30
2022-07-31T01:37:52.212Z,17.98
2022-07-31T01:40:36.861Z,17.65
2022-07-31T01:43:11.752Z,19.65
2022-07-31T01:45:42.794Z,19.80
2022-07-31T01:48:14.349Z,19.03
2022-07-31T01:50:44.411Z,17.75
2022-07-31T01:53:15.227Z,19.38
2022-07-31T01:56:02.302Z,19.55
2022-07-31T01:58:35.047Z,17.52
2022-07-31T02:03:44.277Z,17.58
2022-07-31T02:06:18.134Z,16.87
2022-07-31T02:08:50.444Z,18.52
2022-07-31T02:11:19.175Z,18.58
2022-07-31T02:13:47.616Z,20.55
2022-07-31T02:16:16.433Z,21.75
2022-07-31T02:18:43.464Z,24.08
2022-07-31T02:21:10.542Z,21.95
2022-07-31T02:23:38.305Z,22.98
2022-07-31T02:26:07.176Z,26.25
2022-07-31T02:28:38.061Z,24.55
2022-07-31T02:31:10.279Z,24.77
2022-07-31T02:36:06.152Z,25.13
2022-07-31T02:38:34.035Z,25.58
2022-07-31T02:41:04.799Z,22.95
2022-07-31T02:43:33.301Z,24.17
2022-07-31T02:46:00.674Z,25.33
2022-07-31T02:48:28.213Z,25.23
2022-07-31T02:50:55.721Z,25.60
2022-07-31T02:53:22.431Z,24.88
2022-07-31T02:55:50.597Z,24.27
2022-07-31T02:58:17.312Z,24.70
2022-07-31T03:00:44.128Z,24.50
2022-07-31T03:03:10.829Z,23.60
2022-07-31T03:05:37.459Z,21.90
2022-07-31T03:08:04.519Z,23.20
2022-07-31T03:10:31.161Z,22.60
2022-07-31T03:12:58.686Z,24.15
2022-07-31T03:15:27.104Z,23.70
2022-07-31T03:17:55.113Z,24.80
2022-07-31T03:20:23.537Z,26.85
2022-07-31T03:22:51.368Z,27.63
2022-07-31T03:25:21.512Z,25.52
2022-07-31T03:27:52.451Z,24.08
2022-07-31T03:30:26.870Z,25.70
2022-07-31T03:32:54.349Z,26.38
2022-07-31T03:35:21.246Z,28.13
2022-07-31T03:37:47.854Z,29.55
2022-07-31T03:40:14.609Z,29.50
2022-07-31T03:42:42.504Z,28.38
2022-07-31T03:45:10.898Z,27.60
2022-07-31T03:47:38.089Z,26.48
2022-07-31T03:50:05.605Z,25.40
2022-07-31T03:52:32.459Z,23.05
2022-07-31T03:54:59.486Z,22.08
2022-07-31T03:57:31.125Z,22.27
2022-07-31T04:02:28.317Z,23.67
2022-07-31T04:04:55.624Z,23.90
2022-07-31T04:07:22.256Z,25.27
2022-07-31T04:09:49.150Z,26.55
2022-07-31T04:12:16.299Z,28.00
2022-07-31T04:14:43.252Z,27.52
2022-07-31T04:17:09.991Z,28.27
2022-07-31T04:19:36.788Z,26.50
2022-07-31T04:22:04.409Z,25.70
2022-07-31T04:24:31.435Z,25.02
2022-07-31T04:26:58.719Z,25.70
2022-07-31T04:29:28.685Z,25.70
2022-07-31T04:31:55.924Z,23.85
2022-07-31T04:34:22.557Z,22.02
2022-07-31T04:36:49.204Z,20.67
2022-07-31T04:39:15.802Z,18.85
2022-07-31T04:41:42.865Z,19.25
2022-07-31T04:44:10.326Z,20.00
2022-07-31T04:46:37.467Z,18.15
2022-07-31T04:49:04.427Z,20.65
2022-07-31T04:51:31.181Z,19.27
2022-07-31T04:53:57.857Z,20.38
2022-07-31T04:56:33.472Z,18.17
2022-07-31T04:59:11.601Z,17.83
2022-07-31T05:01:39.605Z,18.17
2022-07-31T05:04:07.224Z,17.27
2022-07-31T05:06:38.701Z,16.50
2022-07-31T05:09:09.423Z,15.43
2022-07-31T05:14:06.745Z,15.38
2022-07-31T05:16:35.036Z,14.90
2022-07-31T05:19:02.586Z,16.13
2022-07-31T05:21:30.620Z,13.93
2022-07-31T05:23:59.027Z,12.63
2022-07-31T05:26:27.018Z,12.68
2022-07-31T05:28:58.471Z,13.43
2022-07-31T05:31:26.444Z,11.73
2022-07-31T05:33:53.307Z,13.88
2022-07-31T05:36:20.819Z,12.27
2022-07-31T05:38:47.777Z,12.02
2022-07-31T05:41:14.797Z,11.45
2022-07-31T05:43:41.431Z,11.10
2022-07-31T05:46:08.290Z,10.95
2022-07-31T05:48:35.063Z,10.13
2022-07-31T05:51:05.366Z,9.50
2022-07-31T05:53:32.272Z,9.82
2022-07-31T05:55:58.899Z,8.60
2022-07-31T05:58:25.539Z,7.93
2022-07-31T06:00:52.128Z,7.63
2022-07-31T06:03:24.053Z,7.75
2022-07-31T06:05:51.965Z,9.32
2022-07-31T06:08:18.596Z,9.32
2022-07-31T06:10:45.297Z,9.27
2022-07-31T06:13:13.454Z,10.75
2022-07-31T06:15:45.375Z,10.57
2022-07-31T06:18:16.313Z,9.65
2022-07-31T06:20:43.126Z,10.05
2022-07-31T06:23:22.561Z,9.52
2022-07-31T06:25:49.814Z,10.27
2022-07-31T06:28:16.738Z,10.90
2022-07-31T06:30:44.186Z,11.40
2022-07-31T06:33:16.674Z,11.98
2022-07-31T06:35:57.912Z,12.40
2022-07-31T06:38:24.548Z,12.10
2022-07-31T06:40:51.588Z,12.35
2022-07-31T06:43:18.643Z,12.90
2022-07-31T06:45:52.019Z,12.75
2022-07-31T06:48:19.295Z,13.48
2022-07-31T06:50:46.056Z,14.63
2022-07-31T06:53:12.678Z,13.00
2022-07-31T06:55:44.421Z,12.05
2022-07-31T06:58:11.604Z,13.50
2022-07-31T07:00:38.536Z,13.90
2022-07-31T07:03:05.168Z,15.27
2022-07-31T07:05:31.822Z,13.82
2022-07-31T07:07:58.430Z,13.85
2022-07-31T07:10:25.143Z,13.77
2022-07-31T07:12:51.835Z,14.65
2022-07-31T07:15:20.679Z,15.35
2022-07-31T07:17:47.273Z,14.77
2022-07-31T07:20:13.933Z,16.08
2022-07-31T07:22:40.564Z,15.90
2022-07-31T07:25:07.608Z,15.80
2022-07-31T07:27:34.288Z,15.82
2022-07-31T07:30:01.045Z,16.13
2022-07-31T07:32:27.716Z,17.73
2022-07-31T07:34:59.416Z,16.67
2022-07-31T07:37:27.714Z,16.02
2022-07-31T07:39:54.438Z,14.15
2022-07-31T07:42:21.367Z,13.45
2022-07-31T07:44:47.965Z,13.55
2022-07-31T07:47:14.560Z,11.63
2022-07-31T07:49:41.427Z,10.95
2022-07-31T07:52:08.064Z,10.15
2022-07-31T07:54:34.705Z,11.13
2022-07-31T07:57:01.327Z,10.70
2022-07-31T07:59:27.981Z,10.45
2022-07-31T08:01:54.608Z,11.05
2022-07-31T08:04:21.310Z,10.73
2022-07-31T08:06:47.986Z,10.48
2022-07-31T08:09:14.754Z,10.60
2022-07-31T08:11:41.501Z,10.57
2022-07-31T08:14:08.185Z,10.10
2022-07-31T08:16:35.013Z,8.60
2022-07-31T08:19:01.785Z,9.20
2022-07-31T08:21:28.543Z,8.20
2022-07-31T08:23:55.332Z,9.38
2022-07-31T08:26:22.585Z,10.50
2022-07-31T08:28:54.217Z,9.32
2022-07-31T08:31:22.758Z,8.18
2022-07-31T08:33:49.566Z,8.45
2022-07-31T08:36:16.812Z,9.32
2022-07-31T08:38:43.655Z,9.27
2022-07-31T08:41:13.075Z,9.25
2022-07-31T08:44:00.411Z,10.30
2022-07-31T08:46:27.565Z,10.00
2022-07-31T08:48:57.349Z,10.10
2022-07-31T08:51:24.757Z,10.55
2022-07-31T08:53:53.126Z,10.45
2022-07-31T08:56:21.339Z,9.90
2022-07-31T08:58:48.254Z,11.80
2022-07-31T09:03:42.744Z,13.38
2022-07-31T09:06:09.752Z,13.75
2022-07-31T09:08:37.522Z,13.57
2022-07-31T09:11:13.482Z,13.00
2022-07-31T09:13:41.516Z,14.18
2022-07-31T09:16:08.294Z,13.73
2022-07-31T09:18:35.411Z,15.35
2022-07-31T09:21:06.059Z,14.50
2022-07-31T09:23:33.625Z,15.55
2022-07-31T09:26:07.775Z,15.90
2022-07-31T09:28:36.712Z,16.50
2022-07-31T09:31:05.943Z,15.75
2022-07-31T09:33:33.105Z,15.40
2022-07-31T09:36:00.561Z,14.77
2022-07-31T09:38:33.649Z,14.95
2022-07-31T09:41:56.332Z,14.45
2022-07-31T09:44:10.136Z,14.90
2022-07-31T09:46:46.140Z,15.13
2022-07-31T09:49:13.737Z,14.60
2022-07-31T09:51:46.214Z,15.57
2022-07-31T09:54:23.357Z,14.80
2022-07-31T09:56:50.481Z,14.93
2022-07-31T09:59:17.511Z,15.20
2022-07-31T10:01:48.873Z,14.65
2022-07-31T10:04:22.407Z,16.38
2022-07-31T10:06:51.463Z,15.05
2022-07-31T10:09:20.305Z,14.88
2022-07-31T10:11:49.804Z,14.85
2022-07-31T10:14:24.411Z,13.25
2022-07-31T10:16:56.735Z,13.45
2022-07-31T10:19:24.107Z,11.98
2022-07-31T10:21:56.618Z,12.15
2022-07-31T10:24:28.367Z,11.52
2022-07-31T10:27:01.561Z,11.30
2022-07-31T10:29:32.726Z,13.05
2022-07-31T10:32:00.195Z,12.70
2022-07-31T10:34:27.587Z,11.45
2022-07-31T10:36:59.353Z,11.57
2022-07-31T10:42:32.585Z,10.63
2022-07-31T10:45:08.865Z,9.55
2022-07-31T10:47:36.137Z,10.10
2022-07-31T10:50:07.341Z,8.75
2022-07-31T10:52:38.400Z,10.10
2022-07-31T10:55:22.704Z,10.30
2022-07-31T10:57:56.539Z,9.52
2022-07-31T11:00:28.472Z,9.85
2022-07-31T11:02:56.778Z,9.43
2022-07-31T11:05:24.809Z,10.48
2022-07-31T11:08:06.503Z,10.55
2022-07-31T11:10:34.704Z,10.80
2022-07-31T11:13:06.126Z,9.93
2022-07-31T11:15:33.809Z,9.60
2022-07-31T11:18:21.969Z,10.60
2022-07-31T11:21:13.714Z,8.77
2022-07-31T11:23:55.920Z,11.05
2022-07-31T11:26:33.727Z,9.75
2022-07-31T11:30:00.317Z,10.77
2022-07-31T11:32:25.063Z,11.10
2022-07-31T11:34:57.239Z,10.05
2022-07-31T11:37:26.603Z,9.57
2022-07-31T11:40:02.072Z,9.45
2022-07-31T11:42:33.213Z,10.23
2022-07-31T11:45:11.321Z,9.43
2022-07-31T11:48:11.996Z,8.60
2022-07-31T11:50:44.626Z,9.23
2022-07-31T11:53:12.491Z,9.35
2022-07-31T11:55:54.605Z,9.40
2022-07-31T11:58:23.850Z,8.63
2022-07-31T12:00:55.575Z,10.10
2022-07-31T12:05:52.817Z,10.10
2022-07-31T12:08:24.431Z,10.00
2022-07-31T12:10:56.635Z,9.57
2022-07-31T12:13:25.127Z,9.68
2022-07-31T12:15:57.863Z,8.65
2022-07-31T12:18:26.376Z,8.07
2022-07-31T12:21:00.160Z,8.30
2022-07-31T12:23:41.508Z,6.35
2022-07-31T12:26:13.163Z,8.23
2022-07-31T12:28:40.930Z,6.70
2022-07-31T12:31:07.800Z,6.63
2022-07-31T12:33:42.896Z,6.65
2022-07-31T12:36:16.650Z,7.57
2022-07-31T12:38:47.851Z,8.30
2022-07-31T12:41:15.794Z,8.10
2022-07-31T12:43:51.374Z,8.43
2022-07-31T12:46:36.045Z,8.05
2022-07-31T12:49:04.406Z,8.02
2022-07-31T12:51:45.439Z,8.60
2022-07-31T12:54:17.280Z,8.68
2022-07-31T12:56:45.106Z,7.22
2022-07-31T12:59:12.772Z,8.00
2022-07-31T13:01:39.879Z,8.50
2022-07-31T13:04:07.617Z,8.55
2022-07-31T13:06:35.362Z,8.20
2022-07-31T13:09:02.193Z,8.63
2022-07-31T13:11:46.297Z,8.82
2022-07-31T13:14:18.809Z,8.30
2022-07-31T13:16:46.935Z,7.40
2022-07-31T13:19:14.512Z,7.30
2022-07-31T13:21:48.128Z,6.72
2022-07-31T13:24:17.469Z,7.43
2022-07-31T13:26:45.644Z,7.97
2022-07-31T13:29:12.979Z,7.57
2022-07-31T13:31:40.436Z,8.23
2022-07-31T13:34:07.307Z,8.02
2022-07-31T13:36:39.296Z,8.00
2022-07-31T13:39:08.094Z,8.77
2022-07-31T13:41:35.879Z,8.82
2022-07-31T13:44:03.870Z,8.90
2022-07-31T13:46:31.656Z,7.80
2022-07-31T13:49:00.272Z,7.90
2022-07-31T13:51:29.360Z,7.72
2022-07-31T13:53:56.467Z,8.05
2022-07-31T13:56:39.069Z,7.10
2022-07-31T13:59:13.695Z,6.55
2022-07-31T14:02:13.503Z,6.88
2022-07-31T14:04:32.316Z,6.68
2022-07-31T14:07:04.130Z,6.30
2022-07-31T14:11:58.354Z,6.05
2022-07-31T14:14:25.420Z,5.93
2022-07-31T14:16:52.224Z,6.82
2022-07-31T14:19:19.084Z,7.22
2022-07-31T14:21:50.209Z,6.97
2022-07-31T14:24:23.492Z,6.95
2022-07-31T14:26:50.329Z,7.18
2022-07-31T14:29:17.250Z,7.88
2022-07-31T14:31:44.071Z,8.75
2022-07-31T14:34:10.995Z,8.65
2022-07-31T14:36:37.814Z,7.15
2022-07-31T14:39:04.663Z,6.70
2022-07-31T14:41:31.524Z,6.18
2022-07-31T14:43:58.398Z,5.60
2022-07-31T14:46:25.215Z,6.65
2022-07-31T14:48:52.365Z,6.80
2022-07-31T14:51:19.773Z,6.93
2022-07-31T14:53:47.330Z,6.68
2022-07-31T14:56:16.686Z,6.40
2022-07-31T14:58:57.523Z,6.55
2022-07-31T15:01:26.925Z,5.97
2022-07-31T15:03:58.166Z,6.80
2022-07-31T15:06:41.288Z,6.10
2022-07-31T15:09:12.708Z,6.35
2022-07-31T15:12:00.122Z,6.43
2022-07-31T15:14:28.926Z,7.90
2022-07-31T15:16:55.758Z,7.43
2022-07-31T15:19:22.592Z,6.72
2022-07-31T15:22:10.210Z,6.93
2022-07-31T15:24:36.382Z,7.25
2022-07-31T15:27:03.646Z,6.22
2022-07-31T15:30:05.821Z,6.50
2022-07-31T15:32:17.627Z,6.47
2022-07-31T15:34:44.529Z,6.22
2022-07-31T15:37:11.454Z,5.65
2022-07-31T15:40:02.128Z,5.50
2022-07-31T15:42:34.815Z,5.53
2022-07-31T15:45:01.730Z,5.63
2022-07-31T15:47:28.587Z,6.25
2022-07-31T15:49:55.467Z,5.75
2022-07-31T15:52:22.461Z,6.43
2022-07-31T15:54:52.061Z,5.55
2022-07-31T15:57:22.928Z,5.43
2022-07-31T15:59:50.735Z,5.72
2022-07-31T16:02:17.702Z,5.07
2022-07-31T16:04:51.959Z,5.75
2022-07-31T16:08:28.877Z,5.38
2022-07-31T16:10:15.508Z,6.20
2022-07-31T16:12:47.811Z,6.18
2022-07-31T16:15:16.342Z,5.93
2022-07-31T16:17:44.241Z,5.40
2022-07-31T16:20:25.485Z,5.55
2022-07-31T16:22:56.693Z,5.30
2022-07-31T16:25:24.615Z,6.13
2022-07-31T16:27:51.574Z,5.15
2022-07-31T16:30:18.387Z,5.78
2022-07-31T16:32:45.325Z,5.72
2022-07-31T16:35:12.946Z,5.50
2022-07-31T16:37:50.091Z,5.25
2022-07-31T16:40:30.223Z,5.65
2022-07-31T16:43:48.554Z,5.63
2022-07-31T16:45:50.909Z,5.10
2022-07-31T16:48:18.366Z,5.30
2022-07-31T16:50:48.208Z,4.93
2022-07-31T16:54:11.576Z,5.35
2022-07-31T16:56:08.414Z,5.25
2022-07-31T16:58:37.017Z,4.88
2022-07-31T17:01:04.374Z,4.50
2022-07-31T17:04:01.367Z,5.05
2022-07-31T17:06:18.625Z,4.78
2022-07-31T17:09:16.930Z,5.25
2022-07-31T17:11:55.588Z,5.18
2022-07-31T17:14:26.616Z,4.70
2022-07-31T17:16:54.630Z,4.40
2022-07-31T17:19:36.014Z,4.72
2022-07-31T17:22:11.155Z,4.72
2022-07-31T17:24:38.786Z,5.10
2022-07-31T17:27:09.816Z,4.90
2022-07-31T17:29:38.322Z,5.32
2022-07-31T17:32:05.870Z,4.82
2022-07-31T17:34:32.796Z,5.80
2022-07-31T17:36:59.743Z,6.60
2022-07-31T17:39:30.579Z,7.60
2022-07-31T17:41:58.480Z,10.05
2022-07-31T17:44:25.686Z,6.72
2022-07-31T17:46:52.614Z,5.55
2022-07-31T17:49:20.750Z,8.27
2022-07-31T17:52:08.246Z,8.13
2022-07-31T17:54:37.307Z,5.65
2022-07-31T17:57:04.923Z,5.55
2022-07-31T17:59:31.835Z,6.15
2022-07-31T18:02:03.912Z,5.97
2022-07-31T18:04:33.962Z,5.32
2022-07-31T18:07:01.986Z,4.68
2022-07-31T18:09:28.871Z,4.72
2022-07-31T18:11:56.499Z,7.60
2022-07-31T18:14:24.653Z,5.55
2022-07-31T18:16:51.910Z,6.20
2022-07-31T18:19:18.901Z,5.50
2022-07-31T18:21:45.783Z,5.55
2022-07-31T18:24:12.627Z,6.20
2022-07-31T18:26:39.528Z,5.97
2022-07-31T18:29:06.431Z,7.68
2022-07-31T18:31:35.166Z,6.75
2022-07-31T18:34:06.990Z,4.88
2022-07-31T18:36:35.211Z,5.37
2022-07-31T18:39:03.825Z,5.72
2022-07-31T18:41:30.922Z,5.15
2022-07-31T18:43:58.556Z,4.72
2022-07-31T18:46:25.807Z,5.50
2022-07-31T18:48:56.794Z,5.28
2022-07-31T18:51:28.346Z,5.63
2022-07-31T18:53:55.791Z,5.15
2022-07-31T18:56:28.536Z,5.65
2022-07-31T18:58:55.747Z,8.18
2022-07-31T19:01:25.640Z,5.95
2022-07-31T19:03:55.674Z,7.70
2022-07-31T19:06:25.555Z,6.18
2022-07-31T19:08:52.969Z,5.82
2022-07-31T19:11:20.758Z,7.45
2022-07-31T19:13:47.888Z,7.47
2022-07-31T19:16:15.944Z,6.47
2022-07-31T19:18:45.115Z,5.60
2022-07-31T19:21:23.580Z,5.88
2022-07-31T19:23:58.910Z,5.95
2022-07-31T19:26:25.754Z,5.97
2022-07-31T19:28:52.666Z,6.50
2022-07-31T19:31:19.973Z,5.65
2022-07-31T19:33:47.118Z,6.10
2022-07-31T19:36:15.600Z,5.35
2022-07-31T19:38:44.587Z,5.80
2022-07-31T19:41:12.741Z,6.22
2022-07-31T19:43:39.581Z,5.72
2022-07-31T19:46:11.551Z,6.75
2022-07-31T19:48:44.583Z,8.43
2022-07-31T19:51:13.847Z,8.32
2022-07-31T19:53:40.735Z,7.10
2022-07-31T19:56:08.149Z,6.15
2022-07-31T19:58:36.454Z,6.45
2022-07-31T20:01:07.954Z,5.57
2022-07-31T20:03:38.557Z,5.18
2022-07-31T20:06:05.535Z,6.47
2022-07-31T20:08:33.298Z,5.97
2022-07-31T20:11:04.204Z,5.57
2022-07-31T20:13:35.032Z,5.40
2022-07-31T20:16:02.247Z,5.60
2022-07-31T20:18:30.023Z,5.65
2022-07-31T20:21:01.759Z,5.47
2022-07-31T20:23:29.116Z,4.88
2022-07-31T20:25:56.171Z,4.88
2022-07-31T20:28:23.399Z,5.30
2022-07-31T20:30:50.462Z,5.50
2022-07-31T20:33:17.660Z,4.63
2022-07-31T20:35:49.121Z,4.70
2022-07-31T20:38:23.015Z,5.25
2022-07-31T20:40:53.432Z,5.70
2022-07-31T20:45:49.381Z,5.35
2022-07-31T20:48:18.168Z,4.90
2022-07-31T20:50:48.064Z,5.00
2022-07-31T20:53:15.972Z,5.30
2022-07-31T20:55:47.212Z,5.10
2022-07-31T20:58:14.493Z,5.10
2022-07-31T21:00:42.262Z,5.00
2022-07-31T21:03:09.274Z,5.60
2022-07-31T21:05:36.125Z,5.50
2022-07-31T21:08:03.141Z,5.95
2022-07-31T21:10:30.189Z,5.57
2022-07-31T21:12:57.648Z,5.32
2022-07-31T21:15:42.579Z,5.70
2022-07-31T21:18:21.569Z,5.20
2022-07-31T21:20:53.522Z,5.40
2022-07-31T21:23:22.809Z,5.22
2022-07-31T21:25:50.735Z,5.50
2022-07-31T21:28:17.985Z,5.38
2022-07-31T21:30:45.097Z,5.70
2022-07-31T21:33:12.021Z,5.13
2022-07-31T21:35:40.284Z,5.63
2022-07-31T21:38:11.929Z,5.38
2022-07-31T21:40:40.406Z,5.40
2022-07-31T21:43:08.450Z,5.88
2022-07-31T21:45:49.704Z,5.43
2022-07-31T21:48:23.699Z,5.68
2022-07-31T21:50:50.759Z,5.68
2022-07-31T21:53:17.483Z,5.75
2022-07-31T21:55:44.438Z,5.57
2022-07-31T21:58:11.576Z,6.28
2022-07-31T22:00:38.520Z,6.10
2022-07-31T22:03:05.852Z,5.75
2022-07-31T22:05:51.476Z,6.40
2022-07-31T22:08:18.772Z,5.75
2022-07-31T22:10:45.720Z,5.72
2022-07-31T22:13:12.542Z,5.97
2022-07-31T22:15:51.406Z,5.40
2022-07-31T22:18:27.918Z,5.82
2022-07-31T22:20:54.623Z,7.40
2022-07-31T22:23:22.987Z,7.35
2022-07-31T22:25:49.770Z,5.47
2022-07-31T22:28:20.870Z,5.00
2022-07-31T22:30:47.998Z,5.90
2022-07-31T22:33:14.786Z,5.45
2022-07-31T22:35:41.772Z,4.38
2022-07-31T22:38:09.287Z,4.85
2022-07-31T22:40:36.150Z,5.05
2022-07-31T22:43:03.692Z,4.68
2022-07-31T22:45:30.485Z,4.18
2022-07-31T22:47:58.093Z,4.03
2022-07-31T22:50:25.264Z,4.40
2022-07-31T22:52:52.716Z,4.13
2022-07-31T22:55:19.489Z,3.65
2022-07-31T22:57:46.344Z,3.55
2022-07-31T23:00:15.475Z,3.40
2022-07-31T23:02:42.992Z,3.03
2022-07-31T23:05:10.124Z,3.63
2022-07-31T23:07:37.095Z,3.40
2022-07-31T23:10:06.213Z,3.40
2022-07-31T23:12:33.013Z,3.05
2022-07-31T23:14:59.851Z,3.33
2022-07-31T23:17:26.444Z,3.30
2022-07-31T23:19:53.930Z,4.18
2022-07-31T23:22:20.955Z,3.08
2022-07-31T23:25:00.505Z,3.45
2022-07-31T23:27:27.156Z,2.83
2022-07-31T23:29:53.834Z,3.47
2022-07-31T23:32:21.857Z,3.03
2022-07-31T23:34:48.467Z,3.25
2022-07-31T23:37:15.267Z,2.92
2022-07-31T23:39:41.909Z,3.28
2022-07-31T23:42:27.643Z,3.00
2022-07-31T23:44:54.352Z,3.30
2022-07-31T23:47:23.999Z,3.30
2022-07-31T23:50:07.662Z,3.25
2022-07-31T23:52:34.306Z,3.05
2022-07-31T23:55:00.881Z,2.95
2022-07-31T23:57:27.553Z,2.88
